Time;durP1;ratioP1;P1;durP2;ratioP2;P2;SDS_P1;SDS_P2;PMS_P1;PMS_P2;Temp;Humidity;BMP_temperature;BMP_pressure;BME280_temperature;BME280_humidity;BME280_pressure;Samples;Min_cycle;Max_cycle;Signal;HPM_P1;HPM_P2
2021/03/31 00:00:27;;;;;;;78.17;46.13;;;;;;;5.44;62.55;101899.98;125159;1099;104174;-79
2021/03/31 00:03:12;;;;;;;78.43;46.30;;;;;;;5.45;62.67;101906.09;125229;1099;104156;-79
2021/03/31 00:05:42;;;;;;;77.47;45.90;;;;;;;5.45;62.83;101900.87;125157;1099;104277;-79
2021/03/31 00:08:11;;;;;;;74.90;44.33;;;;;;;5.42;62.89;101905.84;125200;1099;104303;-79
2021/03/31 00:10:43;;;;;;;77.93;43.10;;;;;;;5.37;62.96;101900.27;125070;1099;104216;-79
2021/03/31 00:13:12;;;;;;;74.60;43.50;;;;;;;5.36;62.62;101903.66;125190;1099;104210;-79
2021/03/31 00:15:42;;;;;;;77.20;44.17;;;;;;;5.35;62.82;101899.25;125199;1099;104210;-78
2021/03/31 00:18:12;;;;;;;78.40;45.47;;;;;;;5.34;62.81;101902.63;125239;1102;104153;-78
2021/03/31 00:20:42;;;;;;;73.47;42.53;;;;;;;5.35;63.03;101896.66;125210;1099;104201;-79
2021/03/31 00:23:13;;;;;;;75.53;45.03;;;;;;;5.32;62.68;101892.10;125425;1099;104140;-79
2021/03/31 00:25:43;;;;;;;75.93;41.77;;;;;;;5.29;63.14;101894.46;126261;1099;104267;-78
2021/03/31 00:28:12;;;;;;;76.93;43.70;;;;;;;5.31;63.37;101892.88;125278;1102;104211;-78
2021/03/31 00:30:42;;;;;;;73.60;42.47;;;;;;;5.30;63.01;101888.48;125195;1100;104198;-79
2021/03/31 00:33:11;;;;;;;77.10;43.40;;;;;;;5.30;62.90;101888.48;125223;1099;104130;-79
2021/03/31 00:35:41;;;;;;;76.00;43.50;;;;;;;5.26;62.65;101889.01;125206;1099;104344;-78
2021/03/31 00:38:11;;;;;;;74.27;43.97;;;;;;;5.21;62.71;101886.05;125213;1099;104165;-79
2021/03/31 00:40:43;;;;;;;72.10;44.53;;;;;;;5.23;63.12;101883.56;125298;1099;104141;-78
2021/03/31 00:43:13;;;;;;;76.57;44.80;;;;;;;5.17;63.20;101883.08;126295;1099;104224;-79
2021/03/31 00:45:42;;;;;;;78.60;42.77;;;;;;;5.12;62.94;101882.70;126290;1099;104270;-78
2021/03/31 00:48:14;;;;;;;82.67;45.30;;;;;;;5.07;62.96;101890.95;126229;1099;104226;-78
2021/03/31 00:50:43;;;;;;;81.97;46.17;;;;;;;4.95;63.44;101888.26;126125;1099;104169;-78
2021/03/31 00:53:14;;;;;;;81.77;45.40;;;;;;;4.81;63.55;101889.74;125155;1099;104188;-77
2021/03/31 00:55:43;;;;;;;74.27;43.40;;;;;;;4.70;62.87;101875.87;125188;1102;104277;-78
2021/03/31 00:58:12;;;;;;;79.13;44.57;;;;;;;4.63;63.60;101881.37;125108;1099;104290;-78
2021/03/31 01:00:42;;;;;;;77.43;43.50;;;;;;;4.58;63.31;101873.20;125116;1099;104346;-77
2021/03/31 01:03:11;;;;;;;78.33;41.60;;;;;;;4.52;63.75;101883.09;125266;1099;104211;-78
2021/03/31 01:05:40;;;;;;;76.17;43.40;;;;;;;4.46;63.06;101878.28;126229;1098;104150;-79
2021/03/31 01:08:09;;;;;;;74.00;43.03;;;;;;;4.46;63.94;101875.69;125403;1102;104252;-80
2021/03/31 01:10:41;;;;;;;74.00;42.13;;;;;;;4.40;64.02;101874.28;126316;1097;104268;-79
2021/03/31 01:13:34;;;;;;;70.67;41.80;;;;;;;4.32;63.29;101877.14;125216;1099;104136;-79
2021/03/31 01:16:13;;;;;;;73.70;42.40;;;;;;;4.28;64.37;101880.26;125292;1099;104259;-79
2021/03/31 01:18:50;;;;;;;73.83;41.87;;;;;;;4.30;64.13;101880.39;125245;1099;104174;-78
2021/03/31 01:21:44;;;;;;;72.85;42.40;;;;;;;4.29;64.37;101875.99;125239;1099;104207;-79
2021/03/31 01:24:43;;;;;;;75.13;43.30;;;;;;;4.30;63.98;101876.12;125207;1099;104289;-79
2021/03/31 01:27:17;;;;;;;68.23;42.17;;;;;;;4.30;64.40;101870.92;125168;1099;104274;-78
2021/03/31 01:30:03;;;;;;;73.65;42.78;;;;;;;4.29;63.91;101870.80;125234;1099;104270;-79
2021/03/31 01:33:03;;;;;;;72.90;42.93;;;;;;;4.21;64.36;101877.95;125155;1099;104149;-78
2021/03/31 01:35:32;;;;;;;74.87;43.33;;;;;;;4.10;64.21;101873.56;125178;1099;104139;-78
2021/03/31 01:38:04;;;;;;;73.47;43.03;;;;;;;4.06;64.25;101879.27;125226;1099;104303;-78
2021/03/31 01:40:38;;;;;;;75.83;44.00;;;;;;;4.01;64.21;101875.38;125111;1099;104607;-78
2021/03/31 01:43:11;;;;;;;70.47;42.98;;;;;;;3.93;63.81;101877.34;125175;1099;104175;-78
2021/03/31 01:45:46;;;;;;;77.93;42.70;;;;;;;3.85;64.02;101881.88;125214;1099;104146;-78
2021/03/31 01:48:18;;;;;;;75.23;42.90;;;;;;;3.80;64.43;101884.85;125189;1099;104222;-79
2021/03/31 01:50:51;;;;;;;70.07;41.70;;;;;;;3.73;64.40;101879.14;125194;1102;104733;-78
2021/03/31 01:53:21;;;;;;;76.77;43.13;;;;;;;3.69;63.87;101877.05;125152;1099;104142;-78
2021/03/31 01:55:52;;;;;;;71.70;42.43;;;;;;;3.67;64.50;101878.61;125181;1102;104329;-78
2021/03/31 01:58:23;;;;;;;70.30;42.17;;;;;;;3.67;64.20;101883.80;125161;1099;104197;-78
2021/03/31 02:00:53;;;;;;;73.17;42.83;;;;;;;3.66;65.22;101882.01;125195;1099;104211;-78
2021/03/31 02:03:24;;;;;;;77.33;43.23;;;;;;;3.70;65.11;101884.06;125159;1099;104139;-79
2021/03/31 02:05:56;;;;;;;72.87;43.87;;;;;;;3.76;65.06;101883.69;125109;1099;104201;-79
2021/03/31 02:08:28;;;;;;;76.90;42.93;;;;;;;3.79;64.92;101876.16;125256;1102;104143;-79
2021/03/31 02:10:59;;;;;;;72.60;41.23;;;;;;;3.84;65.07;101880.05;125216;1099;104172;-79
2021/03/31 02:13:29;;;;;;;67.00;40.60;;;;;;;3.88;64.95;101879.55;125231;1102;104197;-79
2021/03/31 02:16:00;;;;;;;68.87;40.70;;;;;;;3.91;65.00;101874.61;125293;1102;104289;-78
2021/03/31 02:18:34;;;;;;;70.23;40.03;;;;;;;3.91;64.93;101871.08;125241;1102;104280;-79
2021/03/31 02:21:04;;;;;;;68.78;40.38;;;;;;;3.95;64.93;101873.16;125273;1102;104229;-79
2021/03/31 02:23:36;;;;;;;67.30;40.60;;;;;;;3.93;65.05;101878.23;125244;1102;105547;-79
2021/03/31 02:26:05;;;;;;;70.10;39.87;;;;;;;3.93;65.13;101878.23;125328;1102;104294;-77
2021/03/31 02:28:34;;;;;;;70.30;39.80;;;;;;;3.93;65.24;101867.84;125236;1102;104294;-78
2021/03/31 02:31:05;;;;;;;71.10;41.53;;;;;;;3.95;64.75;101870.57;125230;1102;104239;-78
2021/03/31 02:33:35;;;;;;;68.25;39.25;;;;;;;3.97;64.66;101863.80;125242;1102;104331;-78
2021/03/31 02:36:05;;;;;;;70.70;41.43;;;;;;;3.99;65.01;101861.34;125251;1102;104736;-78
2021/03/31 02:38:34;;;;;;;70.67;42.90;;;;;;;3.99;65.18;101862.27;125262;1102;104354;-79
2021/03/31 02:41:04;;;;;;;73.13;43.83;;;;;;;3.97;65.29;101863.80;125315;1102;104287;-79
2021/03/31 02:43:37;;;;;;;76.83;44.20;;;;;;;3.92;64.80;101860.82;125166;1102;104239;-79
2021/03/31 02:46:08;;;;;;;75.00;43.93;;;;;;;3.89;65.14;101863.16;125129;1099;104146;-79
2021/03/31 02:48:38;;;;;;;75.37;43.20;;;;;;;3.85;65.43;101866.30;125205;1099;104211;-79
2021/03/31 02:51:08;;;;;;;71.20;43.20;;;;;;;3.85;66.04;101866.30;125221;1099;104296;-79
2021/03/31 02:53:38;;;;;;;75.27;42.40;;;;;;;3.81;65.93;101871.10;125211;1099;104140;-79
2021/03/31 02:56:09;;;;;;;76.13;44.30;;;;;;;3.81;65.59;101873.70;125185;1099;104279;-79
2021/03/31 02:58:40;;;;;;;73.73;43.87;;;;;;;3.74;65.37;101870.58;125223;1102;104203;-79
2021/03/31 03:01:09;;;;;;;73.90;42.67;;;;;;;3.69;65.18;101870.95;125223;1099;104644;-79
2021/03/31 03:03:40;;;;;;;77.20;43.33;;;;;;;3.58;65.33;101873.56;125105;1099;104146;-79
2021/03/31 03:06:10;;;;;;;71.00;42.93;;;;;;;3.51;65.75;101878.09;125181;1099;102058;-79
2021/03/31 03:08:40;;;;;;;73.63;41.37;;;;;;;3.42;65.85;101871.31;125195;1099;104184;-78
2021/03/31 03:11:10;;;;;;;70.47;39.93;;;;;;;3.37;65.83;101870.02;125097;1099;104156;-80
2021/03/31 03:13:42;;;;;;;72.50;41.20;;;;;;;3.34;65.37;101876.63;125242;1099;104156;-79
2021/03/31 03:16:12;;;;;;;70.47;41.83;;;;;;;3.30;65.93;101874.53;126151;1099;104220;-79
2021/03/31 03:18:41;;;;;;;73.77;41.73;;;;;;;3.30;65.95;101864.16;126248;1099;104139;-79
2021/03/31 03:21:13;;;;;;;71.50;41.93;;;;;;;3.32;66.34;101871.31;126205;1099;104143;-79
2021/03/31 03:23:44;;;;;;;73.80;41.70;;;;;;;3.33;66.27;101878.30;126072;1098;104140;-79
2021/03/31 03:26:15;;;;;;;73.87;42.13;;;;;;;3.31;65.95;101869.48;125107;1099;104223;-79
2021/03/31 03:28:47;;;;;;;69.67;40.90;;;;;;;3.30;65.84;101871.94;125251;1099;104271;-79
2021/03/31 03:31:16;;;;;;;75.40;40.10;;;;;;;3.27;66.18;101872.58;125155;1099;104347;-79
2021/03/31 03:33:46;;;;;;;70.60;39.90;;;;;;;3.24;66.05;101878.42;125087;1099;104146;-78
2021/03/31 03:36:15;;;;;;;65.83;38.60;;;;;;;3.19;66.54;101877.09;126215;1099;104322;-79
2021/03/31 03:38:44;;;;;;;71.27;39.47;;;;;;;3.14;65.89;101873.20;126202;1099;104156;-79
2021/03/31 03:41:16;;;;;;;68.13;38.23;;;;;;;3.07;66.47;101865.67;126243;1098;101806;-79
2021/03/31 03:43:45;;;;;;;65.47;38.43;;;;;;;3.06;66.30;101871.63;126277;1099;104152;-78
2021/03/31 03:46:15;;;;;;;64.50;37.13;;;;;;;3.02;65.74;101872.12;125102;1099;104139;-78
2021/03/31 03:48:44;;;;;;;69.40;38.40;;;;;;;2.99;65.82;101871.85;125209;1099;104150;-79
2021/03/31 03:51:14;;;;;;;71.77;38.10;;;;;;;2.97;65.52;101865.62;125222;1099;104146;-79
2021/03/31 03:53:43;;;;;;;67.37;39.03;;;;;;;2.94;66.59;101865.36;125247;1099;104207;-79
2021/03/31 03:56:13;;;;;;;67.57;38.37;;;;;;;2.91;66.07;101870.27;126026;1099;104216;-79
2021/03/31 03:58:42;;;;;;;67.57;38.03;;;;;;;2.90;66.42;101866.78;125323;1102;104198;-79
2021/03/31 04:01:11;;;;;;;68.90;37.37;;;;;;;2.87;65.93;101867.41;126290;1099;104146;-79
2021/03/31 04:03:40;;;;;;;71.93;38.67;;;;;;;2.87;66.70;101866.52;126285;1099;104134;-79
2021/03/31 04:06:10;;;;;;;66.73;37.87;;;;;;;2.87;66.33;101867.41;125393;1099;104274;-79
2021/03/31 04:08:39;;;;;;;69.47;38.93;;;;;;;2.93;66.36;101860.94;125197;1099;104149;-79
2021/03/31 04:11:08;;;;;;;73.97;39.80;;;;;;;3.00;66.73;101860.71;125143;1099;104214;-79
2021/03/31 04:13:37;;;;;;;64.87;39.07;;;;;;;3.03;66.63;101853.20;125181;1099;104153;-79
2021/03/31 04:16:11;;;;;;;68.60;38.73;;;;;;;3.05;66.32;101856.83;125159;1102;104300;-79
2021/03/31 04:18:42;;;;;;;65.93;38.80;;;;;;;3.04;66.26;101853.34;125183;1099;104171;-78
2021/03/31 04:21:13;;;;;;;66.17;38.30;;;;;;;3.08;67.25;101851.02;125132;1102;104258;-77
2021/03/31 04:23:42;;;;;;;69.17;39.73;;;;;;;3.18;67.04;101845.83;125158;1099;104153;-78
2021/03/31 04:26:12;;;;;;;70.43;41.17;;;;;;;3.24;66.90;101849.89;125155;1101;104340;-78
2021/03/31 04:28:41;;;;;;;72.00;40.70;;;;;;;3.30;66.39;101853.78;125128;1099;104168;-79
2021/03/31 04:31:11;;;;;;;66.80;39.20;;;;;;;3.32;66.53;101854.81;125136;1099;104666;-79
2021/03/31 04:33:40;;;;;;;66.83;39.57;;;;;;;3.31;66.48;101856.51;125147;1099;104169;-79
2021/03/31 04:36:09;;;;;;;74.97;39.53;;;;;;;3.32;66.07;101860.94;125114;1099;102357;-79
2021/03/31 04:38:45;;;;;;;65.55;38.05;;;;;;;3.34;67.12;101858.47;125113;1099;104219;-79
2021/03/31 04:41:18;;;;;;;69.87;38.53;;;;;;;3.33;66.47;101854.05;125066;1099;104159;-79
2021/03/31 04:43:46;;;;;;;66.00;38.57;;;;;;;3.34;67.08;101856.77;125094;1099;104146;-79
2021/03/31 04:46:15;;;;;;;65.30;38.77;;;;;;;3.35;67.08;101865.45;125098;1099;104281;-77
2021/03/31 04:48:44;;;;;;;69.00;38.00;;;;;;;3.36;66.88;101851.72;125083;1099;104171;-77
2021/03/31 04:51:16;;;;;;;68.80;39.90;;;;;;;3.39;66.88;101850.28;125109;1099;104205;-77
2021/03/31 04:53:44;;;;;;;65.07;39.63;;;;;;;3.41;66.62;101848.75;125114;1099;104239;-78
2021/03/31 04:56:13;;;;;;;72.13;40.23;;;;;;;3.44;66.91;101853.27;125131;1099;104169;-78
2021/03/31 04:58:43;;;;;;;69.97;40.47;;;;;;;3.47;67.29;101857.83;125151;1099;104191;-78
2021/03/31 05:01:12;;;;;;;71.13;39.20;;;;;;;3.47;66.70;101853.54;125080;1099;104134;-78
2021/03/31 05:03:41;;;;;;;75.80;42.23;;;;;;;3.52;67.58;101851.34;125164;1099;104248;-78
2021/03/31 05:06:10;;;;;;;72.47;40.97;;;;;;;3.55;66.93;101849.94;125049;1099;104216;-78
2021/03/31 05:08:39;;;;;;;76.37;42.73;;;;;;;3.60;66.64;101856.42;125107;1102;104140;-77
2021/03/31 05:11:08;;;;;;;69.97;41.70;;;;;;;3.68;67.13;101848.39;125060;1102;104148;-78
2021/03/31 05:13:37;;;;;;;76.53;43.80;;;;;;;3.76;67.00;101844.75;125100;1099;104149;-78
2021/03/31 05:16:06;;;;;;;76.47;43.70;;;;;;;3.84;67.32;101850.59;125240;1099;104152;-78
2021/03/31 05:18:35;;;;;;;70.93;43.17;;;;;;;3.91;66.87;101840.84;126196;1099;104162;-78
2021/03/31 05:21:05;;;;;;;71.13;41.67;;;;;;;4.00;67.46;101843.28;125964;1099;104287;-78
2021/03/31 05:23:34;;;;;;;73.10;43.30;;;;;;;4.09;66.91;101843.16;126115;1099;104239;-78
2021/03/31 05:26:03;;;;;;;76.60;43.70;;;;;;;4.20;67.08;101847.55;125792;1099;104172;-79
2021/03/31 05:28:32;;;;;;;70.03;41.67;;;;;;;4.30;67.58;101844.01;125012;1099;104127;-77
2021/03/31 05:31:01;;;;;;;71.47;40.60;;;;;;;4.41;66.87;101847.48;125132;1099;104258;-78
2021/03/31 05:33:54;;;;;;;72.45;41.80;;;;;;;4.49;67.31;101847.34;125055;1102;104178;-78
2021/03/31 05:36:38;;;;;;;77.57;41.60;;;;;;;4.61;67.66;101844.84;125180;1099;104162;-79
2021/03/31 05:39:10;;;;;;;75.80;42.13;;;;;;;4.73;66.85;101850.11;125847;1099;104140;-80
2021/03/31 05:41:39;;;;;;;71.97;42.57;;;;;;;4.84;66.94;101845.78;125019;1102;104188;-79
2021/03/31 05:44:09;;;;;;;71.13;42.60;;;;;;;4.97;67.19;101843.39;125763;1099;104245;-78
2021/03/31 05:46:39;;;;;;;74.27;44.07;;;;;;;5.10;67.17;101842.66;124924;1102;104386;-78
2021/03/31 05:49:08;;;;;;;78.23;46.40;;;;;;;5.21;67.65;101834.00;124927;1102;104166;-79
2021/03/31 05:51:38;;;;;;;84.93;45.30;;;;;;;5.34;67.35;101834.95;124928;1099;104172;-79
2021/03/31 05:54:08;;;;;;;77.27;44.13;;;;;;;5.44;67.35;101849.59;124987;1100;104329;-79
2021/03/31 05:56:38;;;;;;;77.03;44.93;;;;;;;5.49;67.34;101845.67;125031;1100;104283;-79
2021/03/31 05:59:07;;;;;;;74.20;44.93;;;;;;;5.53;67.06;101838.22;124980;1099;106695;-78
2021/03/31 06:01:38;;;;;;;80.30;46.47;;;;;;;5.65;66.94;101830.42;124864;1099;104113;-78
2021/03/31 06:04:07;;;;;;;77.53;45.13;;;;;;;5.77;67.37;101835.67;124905;1099;104146;-79
2021/03/31 06:06:36;;;;;;;76.47;44.13;;;;;;;5.88;67.08;101833.89;125031;1099;105485;-77
2021/03/31 06:12:15;;;;;;;76.50;45.27;;;;;;;6.06;66.83;101824.89;124977;1099;104245;-76
2021/03/31 06:14:44;;;;;;;73.87;42.83;;;;;;;6.14;66.59;101829.75;124973;1099;104178;-76
2021/03/31 06:17:13;;;;;;;69.23;43.07;;;;;;;6.17;66.56;101828.31;124923;1099;104293;-76
2021/03/31 06:19:45;;;;;;;78.93;45.13;;;;;;;6.22;66.85;101813.02;124970;1100;104152;-76
2021/03/31 06:22:25;;;;;;;77.20;45.10;;;;;;;6.28;66.71;101819.58;125777;1099;104179;-75
2021/03/31 06:25:10;;;;;;;80.00;46.70;;;;;;;6.39;66.74;101816.83;125992;1099;104671;-78
2021/03/31 06:27:40;;;;;;;84.77;51.17;;;;;;;6.55;66.52;101811.96;125047;1099;104179;-77
2021/03/31 06:30:22;;;;;;;80.03;47.20;;;;;;;6.72;66.79;101805.36;125097;1099;104204;-77
2021/03/31 06:32:53;;;;;;;84.97;50.87;;;;;;;6.95;66.23;101813.91;125125;1099;104278;-77
2021/03/31 06:35:26;;;;;;;80.77;46.93;;;;;;;7.18;66.30;101810.33;125069;1100;104198;-77
2021/03/31 06:38:06;;;;;;;78.87;46.57;;;;;;;7.43;66.41;101802.48;125217;1099;104143;-76
2021/03/31 06:40:41;;;;;;;79.13;48.70;;;;;;;7.75;66.20;101809.03;126015;1099;104813;-76
2021/03/31 06:43:18;;;;;;;77.50;46.07;;;;;;;8.05;66.36;101791.88;125915;1099;104275;-75
2021/03/31 06:45:53;;;;;;;73.37;45.60;;;;;;;8.30;66.33;101793.50;126042;1099;104241;-75
2021/03/31 06:48:27;;;;;;;79.25;47.95;;;;;;;8.51;65.55;101794.05;125494;1099;105355;-77
2021/03/31 06:50:56;;;;;;;73.72;46.30;;;;;;;8.71;65.78;101783.94;124945;1102;104159;-77
2021/03/31 06:53:30;;;;;;;78.80;46.17;;;;;;;8.90;65.36;101794.77;125023;1102;104287;-77
2021/03/31 06:56:01;;;;;;;75.22;44.03;;;;;;;9.09;65.26;101794.20;124963;1099;104235;-77
2021/03/31 06:58:33;;;;;;;74.10;44.27;;;;;;;9.25;65.53;101796.05;125312;1099;104174;-77
2021/03/31 07:01:19;;;;;;;74.27;44.17;;;;;;;9.45;65.53;101789.42;126106;1099;104137;-77
2021/03/31 07:03:49;;;;;;;66.87;40.90;;;;;;;9.59;65.38;101785.02;125863;1099;104213;-77
2021/03/31 07:06:19;;;;;;;69.40;42.60;;;;;;;9.69;64.72;101789.09;125852;1099;104175;-78
2021/03/31 07:08:49;;;;;;;78.80;45.17;;;;;;;9.81;65.44;101789.82;125448;1099;104173;-78
2021/03/31 07:14:18;;;;;;;74.30;43.42;;;;;;;10.20;65.16;101789.45;125054;1102;104144;-78
2021/03/31 07:16:58;;;;;;;78.83;44.43;;;;;;;10.40;65.19;101788.00;125055;1102;104169;-79
2021/03/31 07:19:36;;;;;;;73.07;43.43;;;;;;;10.63;65.11;101785.76;124977;1102;104163;-78
2021/03/31 07:22:09;;;;;;;73.03;39.80;;;;;;;10.81;64.61;101792.03;124997;1102;104389;-78
2021/03/31 07:24:38;;;;;;;70.30;42.40;;;;;;;10.95;64.73;101793.73;124890;1102;104396;-77
2021/03/31 07:27:09;;;;;;;76.00;42.20;;;;;;;11.06;64.24;101789.02;124918;1102;104293;-77
2021/03/31 07:30:05;;;;;;;73.60;41.97;;;;;;;11.17;64.11;101781.72;124919;1102;104242;-78
2021/03/31 07:32:43;;;;;;;64.00;37.57;;;;;;;11.33;63.75;101775.59;125023;1102;104319;-76
2021/03/31 07:35:14;;;;;;;50.40;30.83;;;;;;;11.51;63.54;101770.38;125030;1102;104285;-76
2021/03/31 07:37:46;;;;;;;56.23;31.70;;;;;;;11.58;63.66;101769.88;125141;1102;104169;-77
2021/03/31 07:40:21;;;;;;;50.00;30.37;;;;;;;11.71;63.44;101765.27;125073;1102;104287;-77
2021/03/31 07:43:04;;;;;;;46.33;28.63;;;;;;;11.84;63.21;101771.23;124996;1102;104147;-76
2021/03/31 07:45:38;;;;;;;;;;;;;;;11.94;62.96;101766.47;125077;1102;104155;-76
2021/03/31 07:48:11;;;;;;;54.40;31.52;;;;;;;12.07;63.25;101758.34;124884;1102;104299;-77
2021/03/31 07:50:41;;;;;;;69.67;34.37;;;;;;;12.23;63.47;101755.66;124810;1102;104149;-78
2021/03/31 07:53:13;;;;;;;56.57;35.63;;;;;;;12.40;62.74;101752.92;124844;1105;104414;-79
2021/03/31 07:55:46;;;;;;;63.90;37.83;;;;;;;12.51;62.81;101746.47;124897;1102;104186;-79
2021/03/31 07:58:23;;;;;;;58.83;37.17;;;;;;;12.66;62.84;101748.02;124801;1102;104137;-79
2021/03/31 08:01:11;;;;;;;55.57;32.10;;;;;;;12.76;62.12;101745.88;124811;1102;104398;-78
2021/03/31 08:03:45;;;;;;;52.23;29.27;;;;;;;12.85;62.29;101737.48;124873;1102;104245;-77
2021/03/31 08:06:21;;;;;;;46.90;28.27;;;;;;;12.97;61.72;101738.91;124771;1102;104411;-75
2021/03/31 08:09:09;;;;;;;50.73;30.37;;;;;;;13.10;61.88;101742.17;124846;1102;104322;-75
2021/03/31 08:11:59;;;;;;;51.07;31.90;;;;;;;13.29;61.84;101737.69;124799;1102;104329;-77
2021/03/31 08:14:44;;;;;;;54.37;32.87;;;;;;;13.50;61.24;101732.51;124730;1102;104287;-77
2021/03/31 08:17:27;;;;;;;49.73;29.50;;;;;;;13.75;61.10;101731.81;124832;1103;104316;-77
2021/03/31 08:20:01;;;;;;;51.57;30.43;;;;;;;13.96;61.12;101733.55;124959;1102;104098;-78
2021/03/31 08:22:38;;;;;;;49.73;31.00;;;;;;;14.22;61.52;101734.63;125015;1102;104143;-78
2021/03/31 08:25:25;;;;;;;46.43;28.17;;;;;;;14.48;60.82;101726.85;125096;1102;104146;-77
2021/03/31 08:28:09;;;;;;;42.33;25.73;;;;;;;14.57;60.01;101708.73;125111;1102;104258;-78
2021/03/31 08:30:40;;;;;;;41.87;25.47;;;;;;;14.60;59.99;101705.28;124807;1102;104345;-77
2021/03/31 08:33:18;;;;;;;37.85;22.10;;;;;;;14.63;59.56;101705.43;125066;1102;104130;-78
2021/03/31 08:36:07;;;;;;;39.17;21.73;;;;;;;14.60;59.95;101705.28;124866;1102;104622;-77
2021/03/31 08:38:37;;;;;;;36.37;21.73;;;;;;;14.60;60.14;101702.64;124943;1102;104152;-76
2021/03/31 08:41:16;;;;;;;38.20;21.77;;;;;;;14.60;59.26;101700.00;124824;1102;104227;-77
2021/03/31 08:43:47;;;;;;;40.23;21.77;;;;;;;14.64;59.96;101702.84;125135;1102;104354;-77
2021/03/31 08:46:29;;;;;;;36.17;18.57;;;;;;;14.66;59.57;101700.27;125053;1102;104208;-78
2021/03/31 08:48:59;;;;;;;36.30;20.63;;;;;;;14.62;59.13;101704.54;125094;1102;104197;-77
2021/03/31 08:51:28;;;;;;;37.10;20.20;;;;;;;14.68;59.34;101696.85;125223;1102;104172;-76
2021/03/31 08:54:02;;;;;;;35.00;18.30;;;;;;;14.71;58.41;101696.97;125189;1102;104143;-77
2021/03/31 08:56:32;;;;;;;26.47;13.83;;;;;;;14.71;58.05;101689.05;125053;1102;104287;-76
2021/03/31 08:59:01;;;;;;;26.07;14.17;;;;;;;14.77;58.29;101690.11;125059;1102;104217;-76
2021/03/31 09:01:33;;;;;;;22.70;13.27;;;;;;;14.82;57.71;101696.45;124877;1102;104133;-76
2021/03/31 09:04:19;;;;;;;27.10;12.40;;;;;;;14.88;57.10;101686.11;125046;1102;104142;-76
2021/03/31 09:06:49;;;;;;;25.70;14.60;;;;;;;14.94;56.59;101677.52;125050;1102;104271;-76
2021/03/31 09:09:18;;;;;;;29.23;15.03;;;;;;;15.04;57.37;101675.27;124822;1102;104213;-77
2021/03/31 09:11:57;;;;;;;45.27;15.03;;;;;;;15.12;55.24;101675.55;124849;1102;104268;-76
2021/03/31 09:14:28;;;;;;;21.33;10.00;;;;;;;15.27;55.92;101680.50;124948;1102;104143;-77
2021/03/31 09:17:00;;;;;;;17.87;8.20;;;;;;;15.44;54.83;101673.12;124690;1102;104328;-77
2021/03/31 09:19:34;;;;;;;21.50;8.73;;;;;;;15.58;54.82;101673.59;125094;1102;104270;-76
2021/03/31 09:22:11;;;;;;;18.23;8.70;;;;;;;15.65;54.85;101670.32;125026;1102;104140;-76
2021/03/31 09:24:41;;;;;;;20.03;9.37;;;;;;;15.71;54.44;101662.59;124877;1102;104233;-78
2021/03/31 09:27:20;;;;;;;20.97;9.27;;;;;;;15.85;55.26;101663.08;125055;1102;104623;-78
2021/03/31 09:29:52;;;;;;;21.37;10.07;;;;;;;15.92;53.27;101659.76;124712;1102;104236;-76
2021/03/31 09:32:27;;;;;;;19.77;10.57;;;;;;;15.92;54.01;101669.46;124761;1102;104357;-76
2021/03/31 09:34:57;;;;;;;19.27;10.03;;;;;;;15.97;54.39;101654.61;124626;1102;104767;-76
2021/03/31 09:37:26;;;;;;;21.67;10.70;;;;;;;16.07;54.52;101662.02;124689;1102;104333;-75
2021/03/31 09:40:02;;;;;;;19.87;10.73;;;;;;;16.20;54.08;101652.70;124653;1103;104226;-76
2021/03/31 09:42:34;;;;;;;23.60;10.67;;;;;;;16.30;53.41;101649.49;124666;1106;104322;-76
2021/03/31 09:45:13;;;;;;;20.10;10.97;;;;;;;16.16;53.02;101656.13;124645;1105;104233;-77
2021/03/31 09:48:08;;;;;;;21.60;11.63;;;;;;;16.03;52.49;101644.22;124600;1102;104226;-76
2021/03/31 09:50:42;;;;;;;23.30;11.53;;;;;;;15.95;52.45;101635.15;124601;1105;104491;-77
2021/03/31 09:53:11;;;;;;;25.57;12.60;;;;;;;15.92;52.32;101637.70;124652;1105;104624;-77
2021/03/31 09:55:40;;;;;;;23.03;12.00;;;;;;;15.90;52.60;101642.94;124681;1102;104424;-76
2021/03/31 09:58:13;;;;;;;24.73;12.27;;;;;;;15.99;52.73;101637.05;124619;1105;104390;-77
2021/03/31 10:00:43;;;;;;;25.03;12.60;;;;;;;16.01;52.09;101639.75;125017;1105;104210;-75
2021/03/31 10:03:13;;;;;;;23.63;11.97;;;;;;;16.01;52.18;101629.16;124928;1102;104147;-76
2021/03/31 10:06:08;;;;;;;27.40;12.13;;;;;;;16.02;50.62;101633.58;124681;1102;104291;-76
2021/03/31 10:09:13;;;;;;;24.40;11.83;;;;;;;16.02;51.86;101621.27;124813;1102;106551;-77
2021/03/31 10:11:54;;;;;;;22.87;12.57;;;;;;;16.15;51.59;101618.12;124858;1102;104198;-76
2021/03/31 10:14:30;;;;;;;26.83;12.53;;;;;;;16.32;51.77;101615.11;124852;1102;104172;-77
2021/03/31 10:17:17;;;;;;;22.57;12.27;;;;;;;16.47;50.41;101611.99;126252;1099;104182;-77
2021/03/31 10:20:13;;;;;;;23.47;11.77;;;;;;;16.50;50.42;101613.00;125279;1099;104225;-77
2021/03/31 10:23:22;;;;;;;23.17;11.47;;;;;;;16.51;49.94;101601.53;125793;1099;102247;-78
2021/03/31 10:25:53;;;;;;;22.33;11.00;;;;;;;16.64;49.75;101609.84;125599;1099;104179;-77
2021/03/31 10:31:28;;;;;;;24.23;11.37;;;;;;;17.06;50.28;101611.91;125790;1099;104333;-77
2021/03/31 10:34:01;;;;;;;20.80;11.77;;;;;;;17.11;50.06;101607.65;125859;1099;104171;-77
2021/03/31 10:36:59;;;;;;;22.13;11.97;;;;;;;17.13;49.74;101592.66;125801;1099;104162;-77
2021/03/31 10:49:10;;;;;;;22.87;12.23;;;;;;;16.92;48.40;101576.18;125911;1099;104190;-78
2021/03/31 10:51:51;;;;;;;24.77;12.83;;;;;;;16.86;48.73;101584.85;125964;1099;104162;-77
2021/03/31 10:54:26;;;;;;;23.63;12.53;;;;;;;16.88;48.16;101585.81;125878;1099;104201;-78
2021/03/31 10:57:12;;;;;;;22.67;12.23;;;;;;;16.85;48.10;101568.03;125714;1099;104193;-79
2021/03/31 10:59:45;;;;;;;25.03;12.87;;;;;;;16.80;47.70;101574.97;125912;1099;104290;-76
2021/03/31 11:02:15;;;;;;;23.00;12.57;;;;;;;16.72;47.82;101571.22;125850;1098;102096;-76
2021/03/31 11:04:54;;;;;;;28.60;13.60;;;;;;;16.62;47.11;101564.74;125680;1099;104166;-77
2021/03/31 11:07:25;;;;;;;22.23;12.20;;;;;;;16.56;47.73;101556.63;125834;1099;104214;-77
2021/03/31 11:09:55;;;;;;;22.27;12.03;;;;;;;16.65;48.14;101556.00;124966;1099;104274;-78
2021/03/31 11:12:24;;;;;;;24.63;12.90;;;;;;;16.76;47.89;101564.23;125665;1099;104230;-77
2021/03/31 11:14:59;;;;;;;22.63;12.57;;;;;;;16.81;48.08;101549.35;125739;1099;104175;-76
2021/03/31 11:17:41;;;;;;;23.07;12.17;;;;;;;16.86;48.17;101548.66;125759;1099;104162;-77
2021/03/31 11:20:23;;;;;;;24.53;13.97;;;;;;;16.75;47.46;101549.19;125802;1098;104179;-77
2021/03/31 11:25:44;;;;;;;24.03;14.47;;;;;;;16.39;47.50;101539.36;125835;1099;104139;-77
2021/03/31 11:31:21;;;;;;;23.50;13.27;;;;;;;16.38;47.33;101530.53;125510;1099;104251;-76
2021/03/31 11:33:50;;;;;;;25.00;13.40;;;;;;;16.32;47.10;101533.89;125786;1099;104156;-76
2021/03/31 11:36:19;;;;;;;23.40;13.63;;;;;;;16.23;47.28;101527.44;125908;1098;104331;-76
2021/03/31 11:38:49;;;;;;;25.60;13.10;;;;;;;16.28;46.82;101523.16;125826;1099;104216;-76
2021/03/31 11:41:24;;;;;;;25.43;13.23;;;;;;;16.32;46.89;101518.00;125871;1099;104200;-76
2021/03/31 11:44:05;;;;;;;25.50;13.50;;;;;;;16.39;46.64;101521.70;125856;1099;104198;-77
2021/03/31 11:46:35;;;;;;;22.87;12.57;;;;;;;16.44;46.27;101517.45;125737;1099;104622;-76
2021/03/31 11:49:12;;;;;;;23.57;13.20;;;;;;;16.47;46.46;101508.68;126006;1098;104539;-76
2021/03/31 11:51:46;;;;;;;23.47;13.77;;;;;;;16.41;46.66;101516.45;125724;1099;104203;-77